Time;durP1;ratioP1;P1;durP2;ratioP2;P2;SDS_P1;SDS_P2;PMS_P1;PMS_P2;Temp;Humidity;BMP_temperature;BMP_pressure;BME280_temperature;BME280_humidity;BME280_pressure;Samples;Min_cycle;Max_cycle;Signal;HPM_P1;HPM_P2
2022/07/12 00:01:21;;;;;;;0.70;0.70;;;18.60;99.90;;;;;;4156722;28;20060;-80
2022/07/12 00:03:41;;;;;;;1.42;0.60;;;18.40;99.90;;;;;;4142940;28;20413;-80
2022/07/12 00:06:03;;;;;;;0.68;0.68;;;18.50;99.90;;;;;;4153557;28;20157;-80
2022/07/12 00:08:24;;;;;;;0.77;0.70;;;18.50;99.90;;;;;;4144796;28;20491;-80
2022/07/12 00:10:45;;;;;;;1.90;0.60;;;18.50;99.90;;;;;;4143834;28;20590;-80
2022/07/12 00:13:05;;;;;;;0.80;0.80;;;18.30;99.90;;;;;;4146019;28;20141;-81
2022/07/12 00:15:26;;;;;;;0.60;0.60;;;18.40;99.90;;;;;;4144196;28;20551;-80
2022/07/12 00:17:46;;;;;;;0.70;0.70;;;18.40;99.90;;;;;;4159488;28;20111;-80
2022/07/12 00:20:08;;;;;;;0.70;0.70;;;18.20;99.90;;;;;;4157449;28;20060;-80
2022/07/12 00:22:28;;;;;;;1.20;1.10;;;17.90;99.90;;;;;;4158165;28;20056;-80
2022/07/12 00:24:49;;;;;;;1.95;0.70;;;17.70;99.90;;;;;;4158716;28;20055;-80
2022/07/12 00:27:10;;;;;;;0.70;0.70;;;17.50;99.90;;;;;;4159718;28;20133;-80
2022/07/12 00:29:30;;;;;;;1.48;0.70;;;17.40;99.90;;;;;;4130145;28;20084;-80
2022/07/12 00:31:51;;;;;;;2.33;0.80;;;17.30;99.90;;;;;;4147716;28;20064;-80
2022/07/12 00:34:12;;;;;;;1.42;0.80;;;17.40;99.90;;;;;;4158637;28;20119;-80
2022/07/12 00:36:32;;;;;;;0.73;0.70;;;17.40;99.90;;;;;;4143267;28;20057;-80
2022/07/12 00:38:53;;;;;;;0.70;0.70;;;17.40;99.90;;;;;;4128609;28;20118;-80
2022/07/12 00:41:14;;;;;;;5.13;0.70;;;17.50;99.90;;;;;;4144300;28;20052;-80
2022/07/12 00:43:35;;;;;;;1.40;0.80;;;17.60;99.90;;;;;;4157779;28;20087;-80
2022/07/12 00:45:57;;;;;;;1.92;0.93;;;17.70;99.90;;;;;;4143792;28;20057;-80
2022/07/12 00:48:18;;;;;;;0.77;0.77;;;17.70;99.90;;;;;;4159616;28;20135;-80
2022/07/12 00:50:39;;;;;;;0.70;0.70;;;17.80;99.90;;;;;;4157613;28;20044;-80
2022/07/12 00:53:02;;;;;;;0.75;0.75;;;17.70;99.90;;;;;;4144509;28;20057;-80
2022/07/12 00:55:23;;;;;;;0.70;0.70;;;17.60;99.90;;;;;;4144452;28;20555;-81
2022/07/12 00:57:44;;;;;;;0.80;0.80;;;17.60;99.90;;;;;;4159083;28;20060;-80
2022/07/12 01:00:07;;;;;;;0.73;0.73;;;17.60;99.90;;;;;;4157638;28;20056;-80
2022/07/12 01:02:29;;;;;;;0.77;0.77;;;17.70;99.90;;;;;;4144669;28;20057;-80
2022/07/12 01:04:51;;;;;;;0.88;0.88;;;17.70;99.90;;;;;;4143421;28;20527;-81
2022/07/12 01:07:12;;;;;;;1.48;0.93;;;17.70;99.90;;;;;;4142409;28;20049;-80
2022/07/12 01:09:33;;;;;;;2.70;0.80;;;17.70;99.90;;;;;;4158019;28;20103;-80
2022/07/12 01:11:54;;;;;;;1.77;0.80;;;17.50;99.90;;;;;;4169481;28;20228;-80
2022/07/12 01:14:15;;;;;;;0.80;0.80;;;17.20;99.90;;;;;;4157764;28;20053;-81
2022/07/12 01:16:37;;;;;;;0.70;0.70;;;17.20;99.90;;;;;;4146113;28;20045;-80
2022/07/12 01:18:58;;;;;;;0.80;0.80;;;17.20;99.90;;;;;;4157588;28;20460;-80
2022/07/12 01:21:21;;;;;;;3.15;0.70;;;17.40;99.90;;;;;;4146512;28;20569;-80
2022/07/12 01:23:42;;;;;;;2.00;0.80;;;17.40;99.90;;;;;;4145458;28;20413;-80
2022/07/12 01:26:03;;;;;;;0.68;0.60;;;17.30;99.90;;;;;;4157368;28;20409;-80
2022/07/12 01:28:24;;;;;;;1.67;0.70;;;17.40;99.90;;;;;;4162227;28;20449;-80
2022/07/12 01:30:46;;;;;;;0.95;0.70;;;17.30;99.90;;;;;;4159317;28;20466;-80
2022/07/12 01:33:07;;;;;;;0.80;0.80;;;17.30;99.90;;;;;;4131085;28;20113;-80
2022/07/12 01:35:28;;;;;;;0.80;0.80;;;17.20;99.90;;;;;;4155607;28;20099;-80
2022/07/12 01:37:49;;;;;;;1.10;0.75;;;17.20;99.90;;;;;;4146905;28;20444;-80
2022/07/12 01:40:12;;;;;;;4.03;0.80;;;17.20;99.90;;;;;;4160997;28;20080;-80
2022/07/12 01:42:32;;;;;;;;;;;17.10;99.90;;;;;;4162749;28;20620;-80
2022/07/12 01:44:54;;;;;;;2.28;0.90;;;17.10;99.90;;;;;;4154457;28;20407;-80
2022/07/12 01:47:15;;;;;;;1.27;0.80;;;17.10;99.90;;;;;;4147125;28;20045;-80
2022/07/12 01:49:36;;;;;;;0.90;0.90;;;17.00;99.90;;;;;;4144910;28;20505;-80
2022/07/12 01:51:58;;;;;;;1.55;0.80;;;17.00;99.90;;;;;;4146293;28;20096;-80
2022/07/12 01:54:18;;;;;;;0.80;0.80;;;17.10;99.90;;;;;;4146650;28;20481;-80
2022/07/12 01:56:39;;;;;;;1.48;1.00;;;17.10;99.90;;;;;;4161919;28;20064;-80
2022/07/12 01:59:00;;;;;;;0.88;0.88;;;17.00;99.90;;;;;;4161522;28;20132;-80
2022/07/12 02:01:21;;;;;;;0.80;0.80;;;17.10;99.90;;;;;;4144545;28;20212;-80
2022/07/12 02:03:42;;;;;;;1.17;0.90;;;16.80;99.90;;;;;;4146798;28;20064;-80
2022/07/12 02:06:03;;;;;;;1.52;0.80;;;16.90;99.90;;;;;;4156453;28;20133;-80
2022/07/12 02:08:23;;;;;;;1.92;0.88;;;17.00;99.90;;;;;;4161280;28;20543;-80
2022/07/12 02:10:44;;;;;;;1.00;0.80;;;17.00;99.90;;;;;;4146845;28;20060;-80
2022/07/12 02:13:05;;;;;;;1.52;0.90;;;17.00;99.90;;;;;;4157468;28;20401;-80
2022/07/12 02:15:26;;;;;;;0.80;0.80;;;16.90;99.90;;;;;;4160561;28;20571;-80
2022/07/12 02:17:47;;;;;;;0.88;0.80;;;17.10;99.90;;;;;;4152736;28;20695;-80
2022/07/12 02:20:10;;;;;;;1.60;0.80;;;16.90;99.90;;;;;;4145853;28;20089;-80
2022/07/12 02:22:31;;;;;;;0.80;0.80;;;16.80;99.90;;;;;;4145973;28;20089;-80
2022/07/12 02:24:52;;;;;;;1.65;0.90;;;16.90;99.90;;;;;;4161537;28;20095;-80
2022/07/12 02:27:12;;;;;;;0.75;0.75;;;16.90;99.90;;;;;;4145830;28;20049;-80
2022/07/12 02:29:35;;;;;;;0.80;0.80;;;16.90;99.90;;;;;;4160849;28;20516;-80
2022/07/12 02:31:56;;;;;;;0.73;0.73;;;17.00;99.90;;;;;;4158455;28;20421;-80
2022/07/12 02:34:16;;;;;;;0.82;0.80;;;17.00;99.90;;;;;;4161252;28;20095;-80
2022/07/12 02:36:37;;;;;;;1.45;0.77;;;16.90;99.90;;;;;;4159741;28;20072;-80
2022/07/12 02:39:02;;;;;;;2.10;0.80;;;16.90;99.90;;;;;;4160967;28;20056;-80
2022/07/12 02:41:23;;;;;;;0.80;0.80;;;17.00;99.90;;;;;;4146326;28;20049;-80
2022/07/12 02:43:43;;;;;;;0.90;0.82;;;16.80;99.90;;;;;;4161044;28;20133;-80
2022/07/12 02:46:12;;;;;;;0.80;0.80;;;16.70;99.90;;;;;;4143692;28;20124;-80
2022/07/12 02:48:34;;;;;;;0.80;0.80;;;16.80;99.90;;;;;;4161148;28;20048;-80
2022/07/12 02:50:54;;;;;;;0.80;0.80;;;16.70;99.90;;;;;;4160211;28;20048;-80
2022/07/12 02:53:15;;;;;;;0.80;0.80;;;16.80;99.90;;;;;;4160440;28;20139;-80
2022/07/12 02:55:37;;;;;;;1.42;0.80;;;16.60;99.90;;;;;;4159668;28;20432;-80
2022/07/12 02:57:58;;;;;;;0.77;0.77;;;16.40;99.90;;;;;;4160034;28;20080;-80
2022/07/12 03:00:18;;;;;;;0.95;0.95;;;16.30;99.90;;;;;;4144068;28;20125;-80
2022/07/12 03:02:39;;;;;;;0.75;0.75;;;16.50;99.90;;;;;;4144478;28;20622;-80
2022/07/12 03:05:00;;;;;;;0.85;0.85;;;16.50;99.90;;;;;;4144414;28;20049;-80
2022/07/12 03:07:20;;;;;;;0.80;0.80;;;16.40;99.90;;;;;;4144850;28;20609;-80
2022/07/12 03:09:41;;;;;;;0.80;0.80;;;16.40;99.90;;;;;;4159729;28;20044;-80
2022/07/12 03:12:02;;;;;;;0.73;0.73;;;16.30;99.90;;;;;;4158407;28;20125;-80
2022/07/12 03:14:22;;;;;;;0.80;0.80;;;16.20;99.90;;;;;;4160425;28;20056;-80
2022/07/12 03:16:43;;;;;;;2.05;0.75;;;16.20;99.90;;;;;;4156967;28;20115;-80
2022/07/12 03:19:05;;;;;;;0.93;0.90;;;16.10;99.90;;;;;;4144944;28;20056;-80
2022/07/12 03:21:26;;;;;;;0.90;0.90;;;16.00;99.90;;;;;;4157293;28;20620;-80
2022/07/12 03:23:46;;;;;;;1.23;1.10;;;15.90;99.90;;;;;;4145797;28;20104;-80
2022/07/12 03:26:08;;;;;;;0.90;0.90;;;15.80;99.90;;;;;;4159386;28;20133;-80
2022/07/12 03:28:28;;;;;;;0.80;0.80;;;16.00;99.90;;;;;;4145835;28;20056;-80
2022/07/12 03:30:50;;;;;;;2.72;1.08;;;15.90;99.90;;;;;;4158608;28;20096;-80
2022/07/12 03:33:10;;;;;;;0.80;0.80;;;16.00;99.90;;;;;;4160086;28;20455;-80
2022/07/12 03:35:31;;;;;;;2.58;1.00;;;16.00;99.90;;;;;;4144443;28;20137;-80
2022/07/12 03:37:52;;;;;;;0.90;0.90;;;16.00;99.90;;;;;;4159367;28;20133;-80
2022/07/12 03:40:14;;;;;;;1.33;0.90;;;16.10;99.90;;;;;;4159963;28;20051;-80
2022/07/12 03:42:35;;;;;;;0.80;0.80;;;16.00;99.90;;;;;;4160091;28;20152;-80
2022/07/12 03:44:55;;;;;;;0.90;0.90;;;15.80;99.90;;;;;;4135077;28;20296;-80
2022/07/12 03:47:16;;;;;;;0.90;0.90;;;15.70;99.90;;;;;;4158246;28;20435;-80
2022/07/12 03:49:37;;;;;;;0.90;0.90;;;15.70;99.90;;;;;;4159307;28;20568;-80
2022/07/12 03:51:57;;;;;;;0.70;0.70;;;15.80;99.90;;;;;;4159324;28;20393;-80
2022/07/12 03:54:18;;;;;;;0.90;0.90;;;15.80;99.90;;;;;;4144151;28;20116;-80
2022/07/12 03:59:17;;;;;;;2.05;0.90;;;16.00;99.90;;;;;;4159563;28;20076;-80
2022/07/12 04:01:38;;;;;;;0.80;0.80;;;16.00;99.90;;;;;;4158130;28;20068;-80
2022/07/12 04:03:58;;;;;;;6.20;0.80;;;15.90;99.90;;;;;;4145468;28;20060;-80
2022/07/12 04:06:19;;;;;;;0.70;0.70;;;15.80;99.90;;;;;;4153817;28;20558;-79
2022/07/12 04:08:40;;;;;;;0.80;0.80;;;15.80;99.90;;;;;;4141344;28;20056;-80
2022/07/12 04:11:01;;;;;;;0.80;0.80;;;15.80;99.90;;;;;;4162108;28;20044;-80
2022/07/12 04:13:21;;;;;;;1.00;0.90;;;15.70;99.90;;;;;;4161455;28;20599;-80
2022/07/12 04:15:43;;;;;;;0.80;0.80;;;15.70;99.90;;;;;;4133584;28;20048;-80
2022/07/12 04:18:04;;;;;;;1.70;1.13;;;15.60;99.90;;;;;;4158835;28;20059;-80
2022/07/12 04:20:25;;;;;;;3.60;1.00;;;15.60;99.90;;;;;;4154728;28;20412;-80
2022/07/12 04:22:47;;;;;;;2.65;0.80;;;15.70;99.90;;;;;;4155693;28;20104;-80
2022/07/12 04:25:10;;;;;;;3.75;0.80;;;15.60;99.90;;;;;;4158882;28;20096;-80
2022/07/12 04:27:31;;;;;;;0.90;0.90;;;15.50;99.90;;;;;;4158250;28;20127;-80
2022/07/12 04:29:52;;;;;;;1.20;0.80;;;15.50;99.90;;;;;;4138047;28;20179;-80
2022/07/12 04:32:13;;;;;;;1.52;0.80;;;15.50;99.90;;;;;;4159108;28;20587;-80
2022/07/12 04:34:34;;;;;;;2.35;0.80;;;15.50;99.90;;;;;;4157549;28;20099;-81
2022/07/12 04:36:54;;;;;;;0.82;0.82;;;15.60;99.90;;;;;;4136284;28;20084;-80
2022/07/12 04:39:15;;;;;;;0.80;0.80;;;15.60;99.90;;;;;;4156407;28;20052;-81
2022/07/12 04:41:35;;;;;;;0.80;0.80;;;15.60;99.90;;;;;;4155952;28;20632;-81
2022/07/12 04:43:57;;;;;;;0.80;0.80;;;15.80;99.90;;;;;;4155484;28;20083;-81
2022/07/12 04:46:18;;;;;;;0.90;0.90;;;15.80;99.90;;;;;;4157012;28;20049;-80
2022/07/12 04:48:38;;;;;;;0.80;0.80;;;15.80;99.90;;;;;;4143809;28;20216;-80
2022/07/12 04:50:59;;;;;;;0.80;0.80;;;15.90;99.90;;;;;;4161456;28;20060;-81
2022/07/12 04:53:20;;;;;;;0.80;0.80;;;16.10;99.90;;;;;;4161756;28;20082;-80
2022/07/12 04:55:41;;;;;;;0.90;0.90;;;16.00;99.90;;;;;;4160330;28;20049;-80
2022/07/12 04:58:02;;;;;;;0.90;0.90;;;16.00;99.90;;;;;;4138976;28;20417;-81
2022/07/12 05:00:22;;;;;;;0.80;0.80;;;16.00;99.90;;;;;;4150210;28;20068;-80
2022/07/12 05:02:43;;;;;;;0.80;0.80;;;16.10;99.90;;;;;;4145879;28;20052;-80
2022/07/12 05:05:04;;;;;;;2.78;1.25;;;16.10;99.90;;;;;;4145889;28;20049;-80
2022/07/12 05:07:24;;;;;;;1.75;0.80;;;16.20;99.90;;;;;;4160858;28;20103;-80
2022/07/12 05:09:45;;;;;;;1.48;0.80;;;16.30;99.90;;;;;;4161215;28;20064;-80
2022/07/12 05:12:06;;;;;;;0.93;0.80;;;16.30;99.90;;;;;;4144739;28;20599;-81
2022/07/12 05:14:26;;;;;;;0.70;0.70;;;16.50;99.90;;;;;;4150994;28;20512;-80
2022/07/12 05:16:47;;;;;;;0.70;0.70;;;16.50;99.90;;;;;;4161864;28;20056;-80
2022/07/12 05:19:08;;;;;;;0.77;0.77;;;16.50;99.90;;;;;;4159329;28;20392;-81
2022/07/12 05:21:29;;;;;;;2.05;0.80;;;16.70;99.90;;;;;;4162191;28;20052;-84
2022/07/12 05:23:49;;;;;;;1.33;0.70;;;16.90;99.90;;;;;;4162581;28;20181;-84
2022/07/12 05:26:10;;;;;;;0.70;0.70;;;17.00;99.90;;;;;;4147576;28;20421;-84
2022/07/12 05:28:36;;;;;;;1.15;0.60;;;17.20;99.90;;;;;;4148069;28;20056;-84
2022/07/12 05:30:56;;;;;;;0.70;0.70;;;17.20;99.90;;;;;;4147351;28;20904;-85
2022/07/12 05:33:17;;;;;;;0.60;0.60;;;17.30;99.90;;;;;;4147496;28;20048;-85
2022/07/12 05:35:38;;;;;;;0.70;0.70;;;17.40;99.90;;;;;;4147752;28;20129;-84
2022/07/12 05:37:58;;;;;;;0.60;0.60;;;17.60;99.90;;;;;;4162288;28;20119;-84
2022/07/12 05:40:19;;;;;;;0.60;0.60;;;17.70;99.90;;;;;;4162377;28;20079;-85
2022/07/12 05:42:40;;;;;;;1.67;0.80;;;17.70;99.90;;;;;;4146943;28;20052;-84
2022/07/12 05:45:01;;;;;;;0.80;0.80;;;17.60;99.90;;;;;;4131493;28;20122;-84
2022/07/12 05:47:22;;;;;;;0.70;0.70;;;17.60;99.90;;;;;;4155543;28;20150;-84
2022/07/12 05:49:43;;;;;;;0.80;0.80;;;17.60;99.90;;;;;;4145226;28;20069;-84
2022/07/12 05:54:44;;;;;;;0.70;0.70;;;17.70;99.90;;;;;;4146258;28;20133;-84
2022/07/12 05:57:05;;;;;;;1.67;0.80;;;17.80;99.90;;;;;;4141936;28;20192;-84
2022/07/12 05:59:25;;;;;;;0.85;0.85;;;17.90;99.90;;;;;;4147522;28;20044;-85
2022/07/12 06:01:46;;;;;;;2.17;1.02;;;17.90;99.90;;;;;;4146511;28;20456;-85
2022/07/12 06:04:07;;;;;;;1.17;0.90;;;17.90;99.90;;;;;;4145586;28;20056;-84
2022/07/12 06:06:28;;;;;;;1.45;0.70;;;17.90;99.90;;;;;;4154975;28;20473;-84
2022/07/12 06:08:49;;;;;;;1.75;0.80;;;17.90;99.90;;;;;;4161958;28;20049;-85
2022/07/12 06:11:09;;;;;;;1.27;0.80;;;17.90;99.90;;;;;;4166127;28;20125;-85
2022/07/12 06:13:30;;;;;;;0.82;0.80;;;18.00;99.90;;;;;;4162706;28;20128;-84
2022/07/12 06:15:51;;;;;;;1.85;0.70;;;18.10;99.90;;;;;;4146953;28;20621;-85
2022/07/12 06:18:12;;;;;;;0.70;0.70;;;18.20;99.90;;;;;;4161506;28;20060;-84
2022/07/12 06:20:33;;;;;;;4.32;1.23;;;18.30;99.90;;;;;;4161769;28;20048;-85
2022/07/12 06:22:53;;;;;;;1.20;0.70;;;18.40;99.90;;;;;;4161447;28;20123;-85
2022/07/12 06:25:14;;;;;;;1.20;0.70;;;18.50;99.90;;;;;;4147010;28;20049;-85
2022/07/12 06:27:55;;;;;;;1.08;0.70;;;18.70;99.90;;;;;;4149724;28;20052;-84
2022/07/12 06:30:20;;;;;;;1.33;0.70;;;19.00;99.90;;;;;;4161979;28;20558;-85
2022/07/12 06:32:40;;;;;;;0.70;0.70;;;19.10;99.90;;;;;;4146948;28;20101;-85
2022/07/12 06:35:02;;;;;;;0.68;0.68;;;19.20;99.90;;;;;;4146731;28;20136;-85
2022/07/12 06:37:23;;;;;;;0.98;0.70;;;19.10;99.90;;;;;;4146207;28;20131;-84
2022/07/12 06:39:44;;;;;;;0.68;0.68;;;19.10;99.90;;;;;;4146738;28;20485;-85
2022/07/12 06:42:05;;;;;;;1.10;0.70;;;19.30;99.90;;;;;;4146499;28;20132;-85
2022/07/12 06:44:25;;;;;;;1.75;0.60;;;19.80;99.90;;;;;;4146361;28;20081;-85
2022/07/12 06:46:46;;;;;;;0.60;0.60;;;20.20;99.90;;;;;;4161105;28;20052;-85
2022/07/12 06:49:10;;;;;;;0.60;0.60;;;20.20;99.90;;;;;;4146481;28;20056;-85
2022/07/12 06:51:30;;;;;;;1.95;0.70;;;20.10;99.90;;;;;;4145987;28;20057;-85
2022/07/12 06:53:51;;;;;;;1.85;0.65;;;20.30;99.90;;;;;;4160512;28;20080;-85
2022/07/12 06:56:12;;;;;;;0.77;0.60;;;20.30;99.90;;;;;;4161169;28;20060;-85
2022/07/12 06:58:32;;;;;;;2.13;0.75;;;20.20;99.90;;;;;;4130274;28;20504;-85
2022/07/12 07:00:53;;;;;;;1.75;0.60;;;19.90;99.90;;;;;;4141183;28;20133;-85
2022/07/12 07:03:16;;;;;;;1.33;0.70;;;20.00;99.90;;;;;;4161049;28;20351;-85
2022/07/12 07:05:37;;;;;;;0.93;0.68;;;20.00;99.90;;;;;;4161112;28;20056;-85
2022/07/12 07:07:58;;;;;;;0.70;0.70;;;20.10;99.90;;;;;;4156920;28;20561;-85
2022/07/12 07:10:18;;;;;;;0.60;0.60;;;20.10;99.90;;;;;;4160656;28;20444;-85
2022/07/12 07:12:39;;;;;;;1.17;0.70;;;20.30;99.90;;;;;;4147227;28;20045;-85
2022/07/12 07:15:01;;;;;;;0.60;0.60;;;20.40;99.90;;;;;;4145655;28;20125;-85
2022/07/12 07:17:22;;;;;;;2.00;0.50;;;20.60;99.90;;;;;;4145022;28;20081;-85
2022/07/12 07:19:43;;;;;;;4.25;0.60;;;20.80;99.90;;;;;;4145868;28;20119;-85
2022/07/12 07:22:04;;;;;;;0.50;0.50;;;20.90;99.90;;;;;;4160296;28;20068;-85
2022/07/12 07:24:24;;;;;;;0.95;0.60;;;21.00;99.90;;;;;;4160880;28;20056;-85
2022/07/12 07:26:45;;;;;;;4.03;1.02;;;21.00;99.90;;;;;;4145602;28;20053;-86
2022/07/12 07:31:45;;;;;;;4.78;0.65;;;21.60;99.90;;;;;;4160375;28;20091;-85
2022/07/12 07:34:06;;;;;;;0.40;0.40;;;21.70;99.90;;;;;;4160653;28;20057;-85
2022/07/12 07:36:27;;;;;;;0.50;0.50;;;21.60;99.90;;;;;;4145622;28;20147;-85
2022/07/12 07:38:48;;;;;;;0.50;0.50;;;21.80;99.90;;;;;;4160476;28;20107;-85
2022/07/12 07:41:08;;;;;;;0.40;0.40;;;22.20;99.90;;;;;;4144861;28;20100;-85
2022/07/12 07:43:29;;;;;;;0.50;0.40;;;22.40;99.90;;;;;;4145580;28;20068;-86
2022/07/12 07:45:51;;;;;;;0.40;0.40;;;22.70;99.90;;;;;;4145507;28;20064;-85
2022/07/12 07:48:12;;;;;;;0.40;0.40;;;22.80;99.90;;;;;;4145657;28;20056;-85
2022/07/12 07:50:44;;;;;;;0.40;0.40;;;22.70;99.90;;;;;;4147125;28;20099;-85
2022/07/12 07:53:04;;;;;;;0.40;0.40;;;22.60;99.90;;;;;;4160320;28;20091;-85
2022/07/12 07:55:26;;;;;;;1.55;0.40;;;23.00;99.90;;;;;;4160237;28;20104;-85
2022/07/12 07:57:47;;;;;;;0.40;0.40;;;23.20;99.90;;;;;;4144712;28;20102;-86
2022/07/12 08:00:08;;;;;;;0.40;0.40;;;23.10;99.90;;;;;;4145239;28;20060;-85
2022/07/12 08:02:28;;;;;;;0.60;0.50;;;23.60;99.90;;;;;;4143800;28;20527;-86
2022/07/12 08:04:49;;;;;;;0.50;0.50;;;24.10;99.90;;;;;;4158053;28;20063;-85
2022/07/12 08:07:10;;;;;;;0.80;0.50;;;23.80;99.90;;;;;;4145332;28;20068;-86
2022/07/12 08:09:50;;;;;;;0.40;0.40;;;23.90;99.90;;;;;;4147767;28;20125;-86
2022/07/12 08:12:11;;;;;;;0.40;0.40;;;24.20;99.90;;;;;;4172712;28;20148;-86
2022/07/12 08:14:37;;;;;;;0.40;0.40;;;24.40;99.90;;;;;;4161938;28;20515;-86
2022/07/12 08:16:58;;;;;;;3.05;0.40;;;24.20;99.90;;;;;;4159485;28;20111;-86
2022/07/12 08:19:18;;;;;;;1.33;0.43;;;24.90;99.90;;;;;;4159871;28;20587;-86
2022/07/12 08:21:39;;;;;;;2.53;0.45;;;25.30;99.90;;;;;;4159717;28;20060;-85
2022/07/12 08:24:00;;;;;;;2.83;0.50;;;24.90;98.90;;;;;;4144328;28;20053;-86
2022/07/12 08:26:21;;;;;;;2.28;0.50;;;25.00;99.90;;;;;;4159765;28;20043;-85
2022/07/12 08:28:42;;;;;;;2.88;0.40;;;25.20;99.90;;;;;;4145006;28;20097;-86
2022/07/12 08:31:02;;;;;;;0.60;0.55;;;25.50;99.90;;;;;;4135665;28;20100;-85
2022/07/12 08:33:23;;;;;;;4.60;0.40;;;25.40;99.90;;;;;;4144770;28;20049;-86
2022/07/12 08:35:45;;;;;;;1.50;0.40;;;25.20;99.10;;;;;;4144831;28;20136;-85
2022/07/12 08:38:05;;;;;;;0.60;0.60;;;25.10;99.90;;;;;;4145254;28;20060;-85
2022/07/12 08:40:26;;;;;;;0.65;0.50;;;25.10;99.90;;;;;;4144527;28;20105;-86
2022/07/12 08:42:47;;;;;;;0.40;0.40;;;25.40;99.90;;;;;;4145058;28;20057;-85
2022/07/12 08:45:10;;;;;;;0.40;0.40;;;25.60;99.50;;;;;;4144774;28;20108;-85
2022/07/12 08:47:30;;;;;;;2.85;0.40;;;25.50;99.00;;;;;;4144842;28;20199;-86
2022/07/12 08:50:17;;;;;;;0.40;0.40;;;25.50;99.00;;;;;;4158560;28;20119;-86
2022/07/12 08:52:41;;;;;;;0.77;0.50;;;25.80;98.00;;;;;;4145000;28;20052;-85
2022/07/12 08:55:15;;;;;;;0.40;0.40;;;26.00;96.10;;;;;;4144497;28;20099;-85
2022/07/12 08:57:36;;;;;;;0.75;0.30;;;25.70;97.20;;;;;;4144758;28;20105;-86
2022/07/12 09:00:01;;;;;;;0.30;0.30;;;25.90;95.10;;;;;;4145160;28;20434;-86
2022/07/12 09:02:21;;;;;;;1.42;0.30;;;25.80;96.10;;;;;;4144736;28;20149;-86
2022/07/12 09:04:42;;;;;;;0.30;0.30;;;26.20;98.60;;;;;;4159586;28;20053;-85
2022/07/12 09:07:14;;;;;;;1.05;0.30;;;26.60;95.40;;;;;;4159629;28;20100;-86
2022/07/12 09:09:38;;;;;;;0.30;0.30;;;26.50;95.80;;;;;;4134010;28;20052;-86
2022/07/12 09:12:00;;;;;;;0.70;0.40;;;26.40;97.00;;;;;;4133395;28;20050;-86
2022/07/12 09:14:20;;;;;;;0.30;0.30;;;26.80;96.10;;;;;;4149626;28;20071;-86
2022/07/12 09:16:42;;;;;;;1.75;0.30;;;26.70;97.00;;;;;;4159452;28;20512;-86
2022/07/12 09:19:19;;;;;;;0.30;0.30;;;26.90;96.60;;;;;;4143010;28;20591;-86
2022/07/12 09:21:47;;;;;;;1.52;0.30;;;27.10;95.00;;;;;;4156891;28;20059;-85
2022/07/12 09:24:10;;;;;;;0.30;0.30;;;27.10;96.10;;;;;;4151341;28;20052;-86
2022/07/12 09:26:33;;;;;;;0.30;0.30;;;26.90;94.50;;;;;;4159755;28;20132;-86
2022/07/12 09:28:53;;;;;;;0.30;0.30;;;26.90;94.60;;;;;;4159899;28;20072;-86
2022/07/12 09:31:14;;;;;;;4.35;0.30;;;27.10;94.80;;;;;;4157173;28;20049;-86
2022/07/12 09:36:14;;;;;;;0.30;0.30;;;27.10;95.90;;;;;;4160905;28;20118;-86
2022/07/12 09:38:44;;;;;;;0.50;0.30;;;27.00;95.00;;;;;;4162382;28;20590;-86
2022/07/12 09:41:07;;;;;;;0.93;0.30;;;26.60;93.50;;;;;;4131416;28;20064;-86
2022/07/12 09:43:28;;;;;;;;;;;26.70;95.80;;;;;;4135458;28;20065;-86
2022/07/12 09:45:49;;;;;;;0.30;0.30;;;27.30;92.90;;;;;;4145839;28;19936;-86
2022/07/12 09:48:13;;;;;;;0.30;0.30;;;27.70;94.10;;;;;;4145638;28;20049;-86
2022/07/12 09:50:35;;;;;;;0.30;0.30;;;28.10;94.20;;;;;;4161629;28;20704;-86
2022/07/12 09:52:59;;;;;;;0.95;0.30;;;27.90;91.80;;;;;;4147324;28;20088;-86
2022/07/12 09:55:24;;;;;;;1.85;0.20;;;27.80;91.50;;;;;;4161839;28;20409;-86
2022/07/12 09:57:47;;;;;;;0.30;0.30;;;27.70;91.20;;;;;;4147312;28;20064;-86
2022/07/12 10:00:10;;;;;;;0.20;0.20;;;28.20;92.90;;;;;;4147030;28;20065;-86
2022/07/12 10:02:32;;;;;;;1.00;0.30;;;28.60;90.60;;;;;;4146601;28;20076;-86
2022/07/12 10:04:53;;;;;;;0.47;0.35;;;28.70;92.60;;;;;;4161956;28;20751;-86
2022/07/12 10:07:16;;;;;;;0.30;0.30;;;29.30;93.00;;;;;;4161581;28;20639;-86
2022/07/12 10:09:37;;;;;;;1.83;0.28;;;29.40;90.60;;;;;;4161323;28;20052;-86
2022/07/12 10:11:58;;;;;;;0.20;0.20;;;28.90;87.80;;;;;;4164104;28;20507;-86
2022/07/12 10:14:22;;;;;;;1.05;0.20;;;28.80;90.80;;;;;;4147241;28;20052;-86
2022/07/12 10:16:44;;;;;;;0.20;0.20;;;29.00;84.70;;;;;;4161853;28;20495;-86
2022/07/12 10:19:31;;;;;;;0.20;0.20;;;29.30;88.40;;;;;;4161637;28;20288;-86
2022/07/12 10:21:57;;;;;;;1.70;0.30;;;29.40;85.80;;;;;;4161140;28;20120;-86
2022/07/12 10:24:33;;;;;;;0.22;0.22;;;29.70;85.10;;;;;;4146646;28;20528;-86
2022/07/12 10:26:54;;;;;;;1.98;0.20;;;29.50;86.90;;;;;;4130549;28;20137;-86
2022/07/12 10:29:20;;;;;;;0.20;0.20;;;29.70;86.60;;;;;;4145464;28;20049;-87
2022/07/12 10:31:42;;;;;;;0.20;0.20;;;29.20;82.30;;;;;;4157658;28;20048;-86
2022/07/12 10:34:14;;;;;;;0.65;0.20;;;28.90;89.30;;;;;;4146173;28;20134;-86
2022/07/12 10:36:56;;;;;;;0.20;0.20;;;29.30;86.60;;;;;;4161315;28;20055;-86
2022/07/12 10:39:38;;;;;;;0.30;0.30;;;29.50;87.20;;;;;;4161365;28;20110;-86
2022/07/12 10:42:05;;;;;;;1.25;0.25;;;30.10;85.60;;;;;;4144703;28;20208;-86
2022/07/12 10:45:00;;;;;;;0.20;0.20;;;30.10;84.10;;;;;;4161630;28;20060;-86
2022/07/12 10:47:20;;;;;;;0.20;0.20;;;30.00;84.50;;;;;;4150363;28;20524;-86
2022/07/12 10:49:49;;;;;;;0.32;0.30;;;29.50;85.60;;;;;;4161431;28;20048;-86
2022/07/12 10:52:09;;;;;;;0.20;0.20;;;30.20;87.80;;;;;;4161286;28;20115;-86
2022/07/12 10:54:31;;;;;;;0.20;0.20;;;30.20;86.00;;;;;;4161608;28;20059;-86
2022/07/12 10:56:58;;;;;;;0.20;0.20;;;29.70;85.80;;;;;;4159471;28;20845;-89
2022/07/12 10:59:19;;;;;;;0.30;0.20;;;29.00;85.70;;;;;;4143008;28;20199;-89
2022/07/12 11:01:47;;;;;;;0.70;0.20;;;29.00;89.10;;;;;;4161042;28;20133;-89
2022/07/12 11:04:11;;;;;;;0.20;0.20;;;28.80;87.80;;;;;;4130705;28;20093;-89
2022/07/12 11:06:38;;;;;;;0.20;0.20;;;28.20;86.10;;;;;;4160731;28;20250;-89
2022/07/12 11:09:04;;;;;;;0.20;0.20;;;28.10;88.50;;;;;;4146102;28;20441;-88
2022/07/12 11:11:28;;;;;;;0.60;0.60;;;28.30;87.20;;;;;;4141303;28;20101;-89
2022/07/12 11:13:49;;;;;;;0.60;0.25;;;28.10;86.00;;;;;;4153297;28;20056;-89
2022/07/12 11:16:10;;;;;;;0.93;0.23;;;28.00;86.10;;;;;;4151559;28;20043;-88
2022/07/12 11:18:34;;;;;;;0.28;0.28;;;27.90;87.70;;;;;;4137689;28;20120;-90
2022/07/12 11:20:57;;;;;;;1.42;0.30;;;28.10;89.70;;;;;;4143158;28;20449;-89
2022/07/12 11:23:19;;;;;;;0.30;0.30;;;27.90;90.10;;;;;;4153029;28;20463;-89
2022/07/12 11:25:40;;;;;;;0.22;0.22;;;27.70;90.30;;;;;;4137634;28;20070;-89
2022/07/12 11:28:01;;;;;;;0.30;0.30;;;27.70;90.10;;;;;;4138698;28;20040;-89
2022/07/12 11:30:22;;;;;;;0.22;0.20;;;27.80;89.40;;;;;;4160924;28;20087;-89
2022/07/12 11:32:43;;;;;;;1.10;0.20;;;27.90;89.70;;;;;;4152428;28;20060;-88
2022/07/12 11:35:16;;;;;;;0.22;0.20;;;27.70;90.70;;;;;;4141099;28;20065;-88
2022/07/12 11:37:48;;;;;;;0.60;0.20;;;27.70;90.80;;;;;;4159692;28;20052;-89
2022/07/12 11:40:12;;;;;;;0.25;0.20;;;27.50;89.90;;;;;;4149400;28;20116;-88
2022/07/12 11:42:32;;;;;;;1.38;0.30;;;27.60;90.60;;;;;;4142372;28;20092;-85
2022/07/12 11:44:53;;;;;;;0.45;0.30;;;27.50;90.10;;;;;;4152423;28;20063;-85
2022/07/12 11:47:15;;;;;;;0.50;0.30;;;27.30;90.30;;;;;;4155876;28;20138;-85
2022/07/12 11:49:36;;;;;;;3.17;0.30;;;27.50;90.30;;;;;;4154700;28;20041;-85
2022/07/12 11:51:57;;;;;;;0.38;0.25;;;27.70;90.10;;;;;;4142140;28;20484;-85
2022/07/12 11:54:17;;;;;;;0.38;0.35;;;28.00;90.30;;;;;;4157701;28;20420;-85
2022/07/12 11:56:38;;;;;;;1.30;0.30;;;28.20;90.40;;;;;;4159205;28;20056;-86
2022/07/12 11:58:58;;;;;;;0.40;0.30;;;28.10;90.40;;;;;;4142030;28;20086;-85
2022/07/12 12:01:19;;;;;;;2.13;0.30;;;28.40;90.10;;;;;;4144485;28;20084;-85
2022/07/12 12:03:48;;;;;;;3.22;0.30;;;29.00;91.30;;;;;;4145096;28;20080;-85
2022/07/12 12:06:09;;;;;;;0.30;0.30;;;29.50;90.80;;;;;;4142140;28;20053;-84
2022/07/12 12:08:29;;;;;;;0.20;0.20;;;29.60;89.40;;;;;;4140115;28;20068;-85
2022/07/12 12:10:58;;;;;;;0.20;0.20;;;29.30;86.70;;;;;;4145987;28;20096;-85
2022/07/12 12:13:19;;;;;;;3.13;0.20;;;29.90;87.40;;;;;;4163165;28;20052;-85
2022/07/12 12:15:40;;;;;;;0.20;0.20;;;30.00;85.30;;;;;;4144544;28;20351;-86
2022/07/12 12:18:04;;;;;;;1.38;0.20;;;29.60;83.40;;;;;;4157316;28;20409;-85
2022/07/12 12:20:27;;;;;;;0.20;0.20;;;29.80;87.20;;;;;;4139961;28;20491;-86
2022/07/12 12:22:50;;;;;;;0.20;0.20;;;30.30;84.90;;;;;;4158858;28;20060;-85
2022/07/12 12:25:13;;;;;;;0.30;0.30;;;30.30;84.40;;;;;;4158546;28;20137;-86
2022/07/12 12:27:53;;;;;;;0.20;0.20;;;30.00;86.00;;;;;;4144333;28;20120;-85
2022/07/12 12:30:34;;;;;;;0.20;0.20;;;30.30;85.10;;;;;;4156134;28;20103;-85
2022/07/12 12:33:08;;;;;;;0.20;0.20;;;30.00;83.40;;;;;;4158048;28;20044;-86